Time;durP1;ratioP1;P1;durP2;ratioP2;P2;SDS_P1;SDS_P2;PMS_P1;PMS_P2;Temp;Humidity;BMP_temperature;BMP_pressure;BME280_temperature;BME280_humidity;BME280_pressure;Samples;Min_cycle;Max_cycle;Signal;HPM_P1;HPM_P2
2022/11/04 00:01:34;;;;;;;7.00;3.93;;;10.70;99.90;;;;;;5129270;28;20794;-66
2022/11/04 00:04:01;;;;;;;4.67;4.10;;;10.70;99.90;;;;;;5129736;27;20450;-66
2022/11/04 00:06:27;;;;;;;5.70;4.03;;;10.70;99.90;;;;;;5129693;27;20453;-66
2022/11/04 00:08:56;;;;;;;6.03;4.20;;;10.70;99.90;;;;;;5116216;27;20446;-68
2022/11/04 00:14:10;;;;;;;5.50;3.77;;;10.90;99.90;;;;;;5109229;28;20561;-66
2022/11/04 00:19:22;;;;;;;6.27;3.63;;;10.90;99.90;;;;;;5088958;28;20482;-66
2022/11/04 00:30:08;;;;;;;3.20;3.00;;;10.90;99.90;;;;;;5109074;28;20429;-66
2022/11/04 00:35:20;;;;;;;5.77;3.20;;;11.00;99.90;;;;;;5106807;28;20523;-66
2022/11/04 00:37:46;;;;;;;7.30;3.37;;;10.90;99.90;;;;;;5129197;27;20472;-69
2022/11/04 00:40:15;;;;;;;3.50;3.20;;;10.90;99.90;;;;;;5129389;27;20446;-66
2022/11/04 00:42:45;;;;;;;4.60;3.40;;;10.90;99.90;;;;;;5128671;27;20461;-66
2022/11/04 00:45:12;;;;;;;4.73;3.13;;;10.90;99.90;;;;;;5127381;27;20499;-66
2022/11/04 00:47:39;;;;;;;3.63;3.23;;;10.80;99.90;;;;;;5129425;27;20477;-67
2022/11/04 00:50:07;;;;;;;5.90;3.27;;;10.80;99.90;;;;;;5129222;27;20478;-67
2022/11/04 00:52:33;;;;;;;3.63;3.33;;;10.80;99.90;;;;;;5128750;27;20469;-67
2022/11/04 00:55:00;;;;;;;3.57;2.83;;;10.70;99.90;;;;;;5122355;27;20482;-67
2022/11/04 00:57:27;;;;;;;3.20;2.90;;;10.70;99.90;;;;;;5108167;28;20447;-67
2022/11/04 00:59:55;;;;;;;3.00;2.80;;;10.70;99.90;;;;;;5123711;28;20795;-67
2022/11/04 01:02:22;;;;;;;3.43;3.00;;;10.70;99.90;;;;;;5128589;27;20473;-67
2022/11/04 01:04:48;;;;;;;2.97;2.77;;;10.70;99.90;;;;;;5128471;27;20453;-67
2022/11/04 01:07:15;;;;;;;2.67;2.47;;;10.70;99.90;;;;;;5117467;27;20453;-67
2022/11/04 01:09:42;;;;;;;2.70;2.50;;;10.70;99.90;;;;;;5115144;27;20492;-67
2022/11/04 01:12:08;;;;;;;3.60;2.30;;;10.70;99.90;;;;;;5097108;28;20529;-67
2022/11/04 01:14:35;;;;;;;5.00;2.23;;;10.70;99.90;;;;;;5094446;28;21003;-67
2022/11/04 01:17:03;;;;;;;2.10;2.00;;;10.80;99.90;;;;;;5094610;28;20818;-67
2022/11/04 01:19:30;;;;;;;2.33;2.10;;;10.80;99.90;;;;;;5094382;28;20455;-67
2022/11/04 01:21:57;;;;;;;1.90;1.80;;;10.80;99.90;;;;;;5094166;28;20463;-67
2022/11/04 01:24:23;;;;;;;2.13;1.93;;;10.80;99.90;;;;;;5097793;28;20814;-67
2022/11/04 01:26:50;;;;;;;2.00;1.80;;;10.80;99.90;;;;;;5115017;28;20477;-66
2022/11/04 01:29:17;;;;;;;3.37;1.90;;;10.80;99.90;;;;;;5114483;28;20450;-67
2022/11/04 01:31:43;;;;;;;2.43;1.90;;;10.80;99.90;;;;;;5114505;28;20447;-67
2022/11/04 01:34:11;;;;;;;3.00;1.70;;;10.70;99.90;;;;;;5114504;28;20854;-67
2022/11/04 01:36:38;;;;;;;2.50;2.30;;;10.70;99.90;;;;;;5114116;28;20891;-67
2022/11/04 01:39:05;;;;;;;2.33;2.10;;;10.70;99.90;;;;;;5114120;28;20445;-67
2022/11/04 01:41:33;;;;;;;2.10;2.00;;;10.70;99.90;;;;;;5114530;28;20533;-67
2022/11/04 01:44:01;;;;;;;2.20;1.73;;;10.70;99.90;;;;;;5112747;28;20451;-66
2022/11/04 01:46:35;;;;;;;2.07;1.97;;;10.60;99.90;;;;;;5114207;28;20443;-67
2022/11/04 01:49:07;;;;;;;2.03;1.80;;;10.60;99.90;;;;;;5114276;28;20450;-67
2022/11/04 01:51:37;;;;;;;4.30;1.90;;;10.60;99.90;;;;;;5104842;28;20456;-68
2022/11/04 01:54:06;;;;;;;2.53;2.07;;;10.60;99.90;;;;;;5093484;28;20504;-67
2022/11/04 01:56:33;;;;;;;2.40;2.20;;;10.50;99.90;;;;;;5111928;28;20482;-68
2022/11/04 01:59:06;;;;;;;2.07;1.87;;;10.50;99.90;;;;;;5113855;28;20887;-67
2022/11/04 02:01:34;;;;;;;2.47;2.00;;;10.50;99.90;;;;;;5113822;28;20447;-67
2022/11/04 02:06:44;;;;;;;1.93;1.83;;;10.60;99.90;;;;;;5113367;28;20442;-67
2022/11/04 02:09:11;;;;;;;3.30;2.20;;;10.60;99.90;;;;;;5097683;28;20440;-67
2022/11/04 02:14:22;;;;;;;2.30;1.93;;;10.60;99.90;;;;;;5093319;28;20431;-67
2022/11/04 02:16:50;;;;;;;1.80;1.70;;;10.60;99.90;;;;;;5079205;28;20490;-67
2022/11/04 02:19:36;;;;;;;3.53;1.90;;;10.60;99.90;;;;;;5092233;28;20448;-67
2022/11/04 02:22:34;;;;;;;2.23;1.70;;;10.60;99.90;;;;;;5093308;28;20865;-67
2022/11/04 02:25:18;;;;;;;2.03;1.93;;;10.60;99.90;;;;;;5092762;28;20443;-67
2022/11/04 02:28:00;;;;;;;1.80;1.70;;;10.50;99.90;;;;;;5092986;28;20456;-67
2022/11/04 02:30:35;;;;;;;2.27;2.07;;;10.50;99.90;;;;;;5092934;28;20455;-67
2022/11/04 02:33:19;;;;;;;2.30;1.73;;;10.40;99.90;;;;;;5093011;28;20474;-67
2022/11/04 02:35:56;;;;;;;2.37;1.60;;;10.40;99.90;;;;;;5103358;28;21023;-67
2022/11/04 02:38:32;;;;;;;1.90;1.80;;;10.40;99.90;;;;;;5113291;28;20442;-67
2022/11/04 02:41:11;;;;;;;1.93;1.50;;;10.30;99.90;;;;;;5112911;27;20640;-67
2022/11/04 02:43:48;;;;;;;2.67;2.00;;;10.30;99.90;;;;;;5112875;28;20973;-67
2022/11/04 02:46:21;;;;;;;2.23;2.03;;;10.20;99.90;;;;;;5112825;28;20449;-67
2022/11/04 02:48:53;;;;;;;2.67;2.00;;;10.20;99.90;;;;;;5113252;27;20475;-67
2022/11/04 02:51:28;;;;;;;1.80;1.70;;;10.20;99.90;;;;;;5113046;28;20447;-67
2022/11/04 02:54:02;;;;;;;1.90;1.80;;;10.10;99.90;;;;;;5112854;28;20570;-67
2022/11/04 02:56:31;;;;;;;1.60;1.50;;;10.10;99.90;;;;;;5112768;28;20486;-67
2022/11/04 02:59:03;;;;;;;1.90;1.70;;;10.10;99.90;;;;;;5107355;28;20451;-67
2022/11/04 03:01:35;;;;;;;2.17;2.00;;;10.10;99.90;;;;;;5092163;28;20446;-67
2022/11/04 03:04:08;;;;;;;1.90;1.80;;;10.10;99.90;;;;;;5092405;28;20457;-67
2022/11/04 03:06:37;;;;;;;1.80;1.70;;;10.00;99.90;;;;;;5092187;28;20444;-67
2022/11/04 03:09:04;;;;;;;3.20;1.90;;;10.00;99.90;;;;;;5092409;28;20488;-67
2022/11/04 03:11:31;;;;;;;2.70;1.80;;;9.90;99.90;;;;;;5091931;28;20534;-67
2022/11/04 03:14:03;;;;;;;1.80;1.63;;;9.90;99.90;;;;;;5094654;28;20448;-67
2022/11/04 03:16:37;;;;;;;1.70;1.60;;;9.90;99.90;;;;;;5112246;28;20574;-67
2022/11/04 03:19:12;;;;;;;1.90;1.80;;;9.90;99.90;;;;;;5112288;28;20510;-67
2022/11/04 03:21:45;;;;;;;1.80;1.70;;;9.90;99.90;;;;;;5112482;28;20482;-66
2022/11/04 03:24:12;;;;;;;1.60;1.50;;;9.90;99.90;;;;;;5112281;28;20446;-67
2022/11/04 03:26:44;;;;;;;1.90;1.80;;;9.80;99.90;;;;;;5112205;28;20443;-67
2022/11/04 03:29:21;;;;;;;2.77;1.67;;;9.80;99.90;;;;;;5112579;27;20460;-67
2022/11/04 03:31:55;;;;;;;1.90;1.80;;;9.80;99.90;;;;;;5111969;28;20512;-67
2022/11/04 03:34:22;;;;;;;3.13;1.80;;;9.80;99.90;;;;;;5112469;28;20540;-67
2022/11/04 03:36:49;;;;;;;1.70;1.60;;;9.80;99.90;;;;;;5093149;28;20483;-67
2022/11/04 03:39:15;;;;;;;2.20;2.00;;;9.70;99.90;;;;;;5106748;28;20454;-67
2022/11/04 03:41:47;;;;;;;3.30;1.80;;;9.70;99.90;;;;;;5112058;28;20491;-67
2022/11/04 03:44:13;;;;;;;1.73;1.63;;;9.70;99.90;;;;;;5108545;28;20812;-67
2022/11/04 03:46:40;;;;;;;1.80;1.70;;;9.60;99.90;;;;;;5112111;28;20449;-66
2022/11/04 03:49:11;;;;;;;5.53;1.90;;;9.60;99.90;;;;;;5112081;28;20457;-67
2022/11/04 03:51:37;;;;;;;2.93;1.80;;;9.60;99.90;;;;;;5102358;28;20447;-67
2022/11/04 03:54:05;;;;;;;1.80;1.70;;;9.60;99.90;;;;;;5091666;28;20508;-67
2022/11/04 03:57:09;;;;;;;8.73;1.80;;;9.50;99.90;;;;;;5091366;28;21085;-67
2022/11/04 04:00:01;;;;;;;1.70;1.60;;;9.50;99.90;;;;;;5091467;28;20496;-67
2022/11/04 04:02:36;;;;;;;2.33;2.07;;;9.50;99.90;;;;;;5091450;28;20486;-67
2022/11/04 04:05:11;;;;;;;1.90;1.70;;;9.50;99.90;;;;;;5091221;28;20446;-67
2022/11/04 04:07:44;;;;;;;7.20;2.10;;;9.50;99.90;;;;;;5092575;28;20439;-67
2022/11/04 04:13:07;;;;;;;2.70;1.97;;;9.40;99.90;;;;;;5086060;28;21092;-66
2022/11/04 04:15:42;;;;;;;2.20;1.70;;;9.40;99.90;;;;;;5091259;28;20486;-67
2022/11/04 04:18:13;;;;;;;3.50;1.97;;;9.40;99.90;;;;;;5091565;28;20450;-66
2022/11/04 04:20:45;;;;;;;3.50;1.73;;;9.40;99.90;;;;;;5091385;28;20549;-67
2022/11/04 04:28:57;;;;;;;8.23;1.83;;;9.30;99.90;;;;;;5091546;28;20560;-67
2022/11/04 04:34:10;;;;;;;5.77;1.90;;;9.20;99.90;;;;;;5091305;28;20786;-67
2022/11/04 04:36:43;;;;;;;2.70;1.63;;;9.20;99.90;;;;;;5107303;28;20538;-67
2022/11/04 04:45:03;;;;;;;4.17;2.00;;;9.10;99.90;;;;;;5072257;28;20428;-67
2022/11/04 04:47:35;;;;;;;5.90;2.20;;;9.10;99.90;;;;;;5098655;28;20848;-66
2022/11/04 04:50:02;;;;;;;4.37;2.00;;;9.10;99.90;;;;;;5115583;28;20441;-67
2022/11/04 04:52:34;;;;;;;4.80;1.70;;;9.10;99.90;;;;;;5115059;28;20469;-67
2022/11/04 04:55:00;;;;;;;5.20;1.83;;;9.00;99.90;;;;;;5112458;28;20459;-67
2022/11/04 04:57:27;;;;;;;3.37;2.07;;;9.00;99.90;;;;;;5094956;28;20482;-67
2022/11/04 04:59:54;;;;;;;3.37;1.90;;;9.00;99.90;;;;;;5106213;28;20447;-67
2022/11/04 05:02:21;;;;;;;3.23;1.90;;;9.00;99.90;;;;;;5114833;28;20468;-67
2022/11/04 05:04:47;;;;;;;5.63;1.83;;;9.00;99.90;;;;;;5114369;28;20445;-67
2022/11/04 05:07:14;;;;;;;5.23;2.10;;;8.90;99.90;;;;;;5094279;28;20451;-66
2022/11/04 05:09:42;;;;;;;5.73;1.73;;;8.90;99.90;;;;;;5094605;28;20454;-67
2022/11/04 05:12:09;;;;;;;5.63;1.97;;;8.80;99.90;;;;;;5094295;28;20463;-67
2022/11/04 05:14:36;;;;;;;3.33;2.40;;;8.80;99.90;;;;;;5094551;28;21027;-67
2022/11/04 05:17:03;;;;;;;2.70;2.10;;;8.70;99.90;;;;;;5094029;28;21001;-67
2022/11/04 05:19:29;;;;;;;5.80;1.77;;;8.60;99.90;;;;;;5094102;28;20492;-67
2022/11/04 05:21:56;;;;;;;1.80;1.70;;;8.60;99.90;;;;;;5089022;28;20474;-67
2022/11/04 05:24:23;;;;;;;1.93;1.83;;;8.50;99.90;;;;;;5093964;28;20451;-67
2022/11/04 05:26:51;;;;;;;2.60;1.90;;;8.40;99.90;;;;;;5094418;28;20496;-67
2022/11/04 05:29:17;;;;;;;2.23;2.03;;;8.30;99.90;;;;;;5094013;28;20456;-67
2022/11/04 05:31:44;;;;;;;7.30;2.23;;;8.30;99.90;;;;;;5093494;28;20454;-67
2022/11/04 05:34:11;;;;;;;3.40;2.03;;;8.20;99.90;;;;;;5093983;28;20447;-67
2022/11/04 05:36:39;;;;;;;3.20;2.07;;;8.20;99.90;;;;;;5093584;28;20475;-67
2022/11/04 05:39:06;;;;;;;7.23;2.47;;;8.20;99.90;;;;;;5094234;28;20454;-67
2022/11/04 05:41:34;;;;;;;3.43;2.30;;;8.10;99.90;;;;;;5093737;28;20875;-67
2022/11/04 05:44:03;;;;;;;14.40;2.80;;;8.10;99.90;;;;;;5094439;28;20988;-67
2022/11/04 05:46:31;;;;;;;2.10;1.90;;;8.10;99.90;;;;;;5101755;28;20451;-67
2022/11/04 05:48:58;;;;;;;2.33;2.10;;;8.00;99.90;;;;;;5093899;28;20454;-67
2022/11/04 05:51:27;;;;;;;14.97;3.17;;;8.00;99.90;;;;;;5093664;28;20452;-67
2022/11/04 05:53:54;;;;;;;6.13;2.20;;;8.00;99.90;;;;;;5093548;28;20934;-67
2022/11/04 05:56:20;;;;;;;7.63;2.10;;;7.90;99.90;;;;;;5098609;28;20482;-67
2022/11/04 05:58:47;;;;;;;2.83;2.47;;;7.90;99.90;;;;;;5093485;28;20450;-67
2022/11/04 06:01:25;;;;;;;5.87;2.30;;;7.90;99.90;;;;;;5097037;28;20454;-67
2022/11/04 06:03:52;;;;;;;6.80;2.30;;;7.80;99.90;;;;;;5113472;28;20470;-67
2022/11/04 06:06:20;;;;;;;7.60;3.00;;;7.80;99.90;;;;;;5106036;28;20457;-67
2022/11/04 06:08:47;;;;;;;5.17;2.43;;;7.70;99.90;;;;;;5113801;28;20499;-67
2022/11/04 06:11:13;;;;;;;6.87;2.80;;;7.70;99.90;;;;;;5103995;28;20881;-67
2022/11/04 06:13:40;;;;;;;6.70;2.97;;;7.70;99.90;;;;;;5093034;28;20524;-67
2022/11/04 06:16:07;;;;;;;6.73;2.80;;;7.70;99.90;;;;;;5093375;28;20479;-67
2022/11/04 06:18:35;;;;;;;3.23;2.80;;;7.60;99.90;;;;;;5093152;28;20496;-67
2022/11/04 06:21:10;;;;;;;4.70;3.30;;;7.60;99.90;;;;;;5092627;28;20497;-66
2022/11/04 06:23:37;;;;;;;5.53;3.30;;;7.60;99.90;;;;;;5092704;28;20467;-66
2022/11/04 06:26:04;;;;;;;7.40;3.40;;;7.60;99.90;;;;;;5103442;28;20953;-66
2022/11/04 06:28:30;;;;;;;9.33;3.40;;;7.60;99.90;;;;;;5108990;28;20457;-67
2022/11/04 06:30:57;;;;;;;5.17;3.40;;;7.60;99.90;;;;;;5111351;27;20517;-67
2022/11/04 06:33:24;;;;;;;5.07;3.97;;;7.60;99.90;;;;;;5109775;28;20470;-66
2022/11/04 06:35:52;;;;;;;5.20;3.73;;;7.60;99.90;;;;;;5092634;28;20458;-66
2022/11/04 06:38:19;;;;;;;4.40;3.63;;;7.60;99.90;;;;;;5097237;28;20457;-66
2022/11/04 06:40:46;;;;;;;10.53;3.70;;;7.60;99.90;;;;;;5110174;28;20435;-66
2022/11/04 06:43:12;;;;;;;4.33;3.80;;;7.70;99.90;;;;;;5092437;28;20459;-66
2022/11/04 06:45:39;;;;;;;7.07;4.60;;;7.60;99.90;;;;;;5092658;28;20473;-66
2022/11/04 06:48:06;;;;;;;3.97;3.67;;;7.70;99.90;;;;;;5092362;28;20497;-65
2022/11/04 06:50:33;;;;;;;3.93;3.60;;;7.70;99.90;;;;;;5112868;28;20442;-66
2022/11/04 06:53:01;;;;;;;6.33;3.40;;;7.60;99.90;;;;;;5112451;28;20547;-66
2022/11/04 06:55:27;;;;;;;4.77;3.83;;;7.60;99.90;;;;;;5096030;28;20953;-66
2022/11/04 06:57:54;;;;;;;5.63;3.63;;;7.60;99.90;;;;;;5091998;28;21013;-66
2022/11/04 07:00:21;;;;;;;8.47;4.17;;;7.60;99.90;;;;;;5092377;28;20452;-65
2022/11/04 07:02:48;;;;;;;12.47;3.77;;;7.70;99.90;;;;;;5091651;28;20998;-65
2022/11/04 07:05:14;;;;;;;5.00;3.90;;;7.70;99.90;;;;;;5091620;28;20448;-65
2022/11/04 07:07:41;;;;;;;6.80;4.27;;;7.70;99.90;;;;;;5092192;28;20451;-66
2022/11/04 07:10:10;;;;;;;5.60;4.10;;;7.70;99.90;;;;;;5092298;28;20461;-65
2022/11/04 07:12:37;;;;;;;6.00;4.40;;;7.70;99.90;;;;;;5091559;28;20510;-66
2022/11/04 07:15:04;;;;;;;6.50;4.67;;;7.70;99.90;;;;;;5108820;28;20459;-65
2022/11/04 07:17:31;;;;;;;5.43;4.10;;;7.70;99.90;;;;;;5091733;28;20506;-66
2022/11/04 07:19:57;;;;;;;6.30;4.60;;;7.70;99.90;;;;;;5104671;28;20452;-65
2022/11/04 07:22:24;;;;;;;5.90;5.17;;;7.70;99.90;;;;;;5094047;28;20513;-65
2022/11/04 07:24:51;;;;;;;9.13;4.70;;;7.70;99.90;;;;;;5105900;28;20454;-65
2022/11/04 07:27:19;;;;;;;5.53;4.53;;;7.70;99.90;;;;;;5091212;28;20444;-65
2022/11/04 07:29:46;;;;;;;8.67;4.80;;;7.70;99.90;;;;;;5091705;28;20467;-65
2022/11/04 07:32:12;;;;;;;7.80;5.00;;;7.80;99.90;;;;;;5082396;28;20499;-66
2022/11/04 07:34:39;;;;;;;8.00;5.43;;;7.80;99.90;;;;;;5091895;28;20454;-65
2022/11/04 07:37:06;;;;;;;8.47;4.80;;;7.90;99.90;;;;;;5098293;28;20479;-66
2022/11/04 07:39:32;;;;;;;7.73;5.67;;;8.00;99.90;;;;;;5109840;28;20450;-65
2022/11/04 07:41:59;;;;;;;15.17;5.80;;;8.00;99.90;;;;;;5110553;28;20836;-65
2022/11/04 07:44:27;;;;;;;18.27;6.77;;;8.00;99.90;;;;;;5107016;28;20537;-65
2022/11/04 07:46:54;;;;;;;8.93;4.37;;;8.00;99.90;;;;;;5091296;28;20447;-65
2022/11/04 07:49:20;;;;;;;10.10;4.80;;;8.10;99.90;;;;;;5100568;28;20458;-65
2022/11/04 07:51:48;;;;;;;7.67;3.87;;;8.10;99.90;;;;;;5111095;28;20454;-65
2022/11/04 07:54:15;;;;;;;7.47;3.77;;;8.20;99.90;;;;;;5111143;28;20509;-65
2022/11/04 07:56:41;;;;;;;7.13;3.80;;;8.20;99.90;;;;;;5111050;28;20486;-65
2022/11/04 07:59:08;;;;;;;7.70;4.00;;;8.30;99.90;;;;;;5111054;28;20454;-66
2022/11/04 08:01:36;;;;;;;9.83;3.50;;;8.40;99.90;;;;;;5111145;28;20453;-66
2022/11/04 08:04:04;;;;;;;6.33;3.60;;;8.40;99.90;;;;;;5111044;28;20451;-65
2022/11/04 08:06:31;;;;;;;8.83;3.67;;;8.50;99.90;;;;;;5092001;28;20810;-66
2022/11/04 08:08:58;;;;;;;4.30;3.80;;;8.60;99.90;;;;;;5090716;28;20454;-66
2022/11/04 08:11:27;;;;;;;9.23;3.73;;;8.60;99.90;;;;;;5090684;28;20443;-66
2022/11/04 08:13:54;;;;;;;4.27;3.60;;;8.70;99.90;;;;;;5106566;28;20546;-65
2022/11/04 08:16:24;;;;;;;9.47;3.50;;;8.70;99.90;;;;;;5112238;28;20450;-66
2022/11/04 08:18:52;;;;;;;13.10;3.90;;;8.80;99.90;;;;;;5110038;27;20453;-66
2022/11/04 08:21:20;;;;;;;5.07;3.63;;;8.90;99.90;;;;;;5094545;28;20452;-66
2022/11/04 08:23:47;;;;;;;7.43;3.90;;;8.90;99.90;;;;;;5094378;28;20506;-66
2022/11/04 08:26:16;;;;;;;9.13;4.00;;;8.80;99.90;;;;;;5094859;28;20538;-65
2022/11/04 08:28:43;;;;;;;4.47;3.90;;;8.80;99.90;;;;;;5094646;28;20457;-66
2022/11/04 08:31:13;;;;;;;10.27;4.07;;;8.80;99.90;;;;;;5089063;28;20502;-66
2022/11/04 08:33:40;;;;;;;6.43;3.80;;;8.80;99.90;;;;;;5094236;28;20467;-66
2022/11/04 08:36:12;;;;;;;6.33;4.10;;;8.80;99.90;;;;;;5094447;28;20442;-66
2022/11/04 08:38:39;;;;;;;5.30;4.00;;;8.90;99.90;;;;;;5094171;28;20850;-65
2022/11/04 08:41:07;;;;;;;11.40;3.73;;;9.00;99.90;;;;;;5094457;28;20500;-65
2022/11/04 08:43:34;;;;;;;7.37;4.10;;;9.10;99.90;;;;;;5094156;28;20475;-65
2022/11/04 08:46:03;;;;;;;7.10;3.70;;;9.10;99.90;;;;;;5094228;28;20454;-65
2022/11/04 08:48:30;;;;;;;12.63;4.47;;;9.10;99.90;;;;;;5105822;28;20454;-65
2022/11/04 08:50:58;;;;;;;5.73;3.83;;;9.20;99.90;;;;;;5114660;28;20446;-64
2022/11/04 08:53:26;;;;;;;8.20;3.70;;;9.30;99.90;;;;;;5114627;28;20471;-64
2022/11/04 08:55:54;;;;;;;8.00;3.47;;;9.60;99.90;;;;;;5114530;27;20463;-64
2022/11/04 08:58:22;;;;;;;6.27;3.87;;;9.70;99.90;;;;;;5109557;28;20993;-65
2022/11/04 09:00:48;;;;;;;9.47;3.90;;;9.90;99.90;;;;;;5113790;28;20450;-66
2022/11/04 09:03:15;;;;;;;3.70;3.40;;;10.20;99.90;;;;;;5096077;28;20839;-66
2022/11/04 09:05:46;;;;;;;3.67;3.33;;;10.70;99.90;;;;;;5093706;28;20451;-66
2022/11/04 09:08:13;;;;;;;9.43;3.90;;;10.90;99.90;;;;;;5096071;28;20504;-65
2022/11/04 09:10:43;;;;;;;6.97;4.07;;;11.00;99.90;;;;;;5109404;28;20468;-67
2022/11/04 09:13:10;;;;;;;12.70;4.80;;;10.80;99.90;;;;;;5094562;28;20880;-66
2022/11/04 09:15:37;;;;;;;8.27;4.43;;;10.70;99.90;;;;;;5093353;28;20454;-66
2022/11/04 09:18:05;;;;;;;8.23;4.70;;;10.70;99.90;;;;;;5093249;28;20486;-66
2022/11/04 09:20:31;;;;;;;10.83;4.57;;;10.60;99.90;;;;;;5093224;28;20448;-66
2022/11/04 09:22:58;;;;;;;5.63;3.87;;;10.50;99.90;;;;;;5093737;28;20494;-65
2022/11/04 09:25:25;;;;;;;10.47;4.10;;;10.30;99.90;;;;;;5093459;28;20509;-66
2022/11/04 09:27:53;;;;;;;7.73;3.93;;;10.20;99.90;;;;;;5093259;28;20440;-66
2022/11/04 09:30:20;;;;;;;10.30;4.67;;;10.10;99.90;;;;;;5110146;28;20454;-66
2022/11/04 09:32:47;;;;;;;8.40;4.53;;;10.00;99.90;;;;;;5113456;28;20825;-66
2022/11/04 09:35:15;;;;;;;12.10;4.73;;;10.10;99.90;;;;;;5113844;28;20446;-66
2022/11/04 09:37:41;;;;;;;6.57;4.20;;;10.10;99.90;;;;;;5104538;28;21033;-67
2022/11/04 09:40:12;;;;;;;8.00;5.23;;;10.20;99.90;;;;;;5093196;28;20456;-67
2022/11/04 09:42:50;;;;;;;7.70;4.80;;;10.30;99.90;;;;;;5093330;28;20467;-66
2022/11/04 09:45:24;;;;;;;20.13;5.43;;;10.40;99.90;;;;;;5097824;28;20451;-66
2022/11/04 09:47:53;;;;;;;10.53;5.10;;;10.50;99.90;;;;;;5093685;28;20443;-66
2022/11/04 09:50:24;;;;;;;10.20;5.67;;;10.70;99.90;;;;;;5109516;28;20446;-67
2022/11/04 09:52:56;;;;;;;10.30;5.10;;;11.00;99.90;;;;;;5114071;28;20475;-66
2022/11/04 09:55:32;;;;;;;7.80;4.57;;;11.20;99.90;;;;;;5113123;28;20462;-66
2022/11/04 09:57:58;;;;;;;8.40;4.83;;;11.30;99.90;;;;;;5093255;28;20494;-66
2022/11/04 10:00:31;;;;;;;8.97;4.60;;;11.40;99.90;;;;;;5093160;28;20456;-66
2022/11/04 10:03:12;;;;;;;12.67;5.00;;;11.50;99.90;;;;;;5093786;28;20521;-66
2022/11/04 10:05:53;;;;;;;7.33;4.43;;;11.50;99.90;;;;;;5093396;28;20452;-66
2022/11/04 10:08:48;;;;;;;10.40;5.40;;;11.60;99.90;;;;;;5094283;28;20451;-66
2022/11/04 10:11:23;;;;;;;14.20;5.50;;;11.80;99.90;;;;;;5098837;28;20478;-66
2022/11/04 10:14:07;;;;;;;10.80;5.53;;;11.80;99.90;;;;;;5093364;28;20476;-66
2022/11/04 10:16:49;;;;;;;8.30;4.50;;;11.70;99.90;;;;;;5092899;28;20458;-66
2022/11/04 10:19:30;;;;;;;7.93;4.70;;;11.60;99.90;;;;;;5093186;28;20859;-66
2022/11/04 10:22:03;;;;;;;6.23;4.10;;;11.50;99.90;;;;;;5092433;28;20475;-66
2022/11/04 10:24:41;;;;;;;10.07;4.27;;;11.60;99.90;;;;;;5093102;28;20431;-66
2022/11/04 10:27:15;;;;;;;12.70;4.87;;;11.50;99.90;;;;;;5105784;28;20498;-65
2022/11/04 10:29:44;;;;;;;6.77;4.10;;;11.50;99.90;;;;;;5113238;28;20535;-65
2022/11/04 10:32:16;;;;;;;5.73;4.07;;;11.60;99.90;;;;;;5111252;28;20815;-65
2022/11/04 10:34:46;;;;;;;5.57;3.30;;;11.60;99.90;;;;;;5094884;28;20457;-65
2022/11/04 10:37:13;;;;;;;12.53;4.80;;;11.80;99.90;;;;;;5092582;28;21017;-65
2022/11/04 10:39:43;;;;;;;7.57;4.03;;;12.00;99.90;;;;;;5101924;28;20460;-66
2022/11/04 10:42:11;;;;;;;7.13;4.40;;;12.30;99.90;;;;;;5112785;28;20981;-65
2022/11/04 10:44:38;;;;;;;10.83;4.20;;;12.80;99.90;;;;;;5113131;28;20453;-65
2022/11/04 10:47:18;;;;;;;13.97;4.50;;;13.10;99.90;;;;;;5094239;28;20452;-66
2022/11/04 10:49:57;;;;;;;8.33;4.27;;;13.20;99.90;;;;;;5112387;28;20445;-66
2022/11/04 10:52:24;;;;;;;5.30;4.70;;;13.20;99.90;;;;;;5095929;28;20489;-66
2022/11/04 10:54:51;;;;;;;8.60;3.77;;;13.30;99.90;;;;;;5092187;28;20463;-66
2022/11/04 10:57:21;;;;;;;9.83;3.70;;;13.70;99.90;;;;;;5092173;28;20483;-67
2022/11/04 10:59:53;;;;;;;8.30;4.40;;;13.80;99.90;;;;;;5092087;28;20962;-66
2022/11/04 11:02:46;;;;;;;6.00;3.73;;;14.10;99.90;;;;;;5092045;28;20463;-67
2022/11/04 11:05:20;;;;;;;8.50;3.37;;;14.50;99.90;;;;;;5092308;28;20478;-66
2022/11/04 11:07:49;;;;;;;10.30;3.30;;;14.90;99.90;;;;;;5109836;28;20844;-66
2022/11/04 11:10:19;;;;;;;7.63;3.63;;;14.80;99.90;;;;;;5110988;28;20455;-66
2022/11/04 11:12:52;;;;;;;4.43;3.57;;;14.90;99.90;;;;;;5091979;28;20494;-68
2022/11/04 11:15:28;;;;;;;10.97;3.50;;;15.00;99.90;;;;;;5092427;28;20447;-65
2022/11/04 11:18:03;;;;;;;10.37;3.43;;;15.20;99.90;;;;;;5091913;28;20482;-66
2022/11/04 11:20:32;;;;;;;5.97;2.97;;;15.20;99.90;;;;;;5091831;28;20474;-66
2022/11/04 11:23:00;;;;;;;7.10;3.30;;;15.10;99.90;;;;;;5092478;28;20479;-66
2022/11/04 11:25:29;;;;;;;8.23;2.70;;;15.00;99.90;;;;;;5092082;28;20452;-66
2022/11/04 11:27:58;;;;;;;2.70;2.50;;;14.80;99.90;;;;;;5092573;28;20443;-66
2022/11/04 11:30:28;;;;;;;4.73;3.00;;;14.80;99.90;;;;;;5091694;28;20458;-66
2022/11/04 11:32:59;;;;;;;6.70;2.90;;;14.60;99.90;;;;;;5091655;28;20573;-66
2022/11/04 11:35:31;;;;;;;4.03;2.67;;;14.40;99.90;;;;;;5091235;28;21000;-68
2022/11/04 11:38:00;;;;;;;4.20;2.10;;;14.50;99.90;;;;;;5075575;28;20483;-67
2022/11/04 11:40:30;;;;;;;3.47;2.17;;;14.70;99.90;;;;;;5087581;28;20462;-68
2022/11/04 11:42:58;;;;;;;6.67;1.90;;;14.90;99.90;;;;;;5091979;28;20481;-68
2022/11/04 11:45:26;;;;;;;3.93;2.20;;;14.80;99.90;;;;;;5100200;28;20987;-67
2022/11/04 11:47:55;;;;;;;2.70;2.10;;;14.70;99.90;;;;;;5111744;28;20442;-68
2022/11/04 11:50:30;;;;;;;3.83;2.23;;;14.40;99.90;;;;;;5111240;28;20537;-67
2022/11/04 11:53:14;;;;;;;4.30;2.60;;;14.40;99.90;;;;;;5071378;28;20463;-68
2022/11/04 11:55:46;;;;;;;2.27;2.03;;;14.60;99.90;;;;;;5071599;28;20947;-67
2022/11/04 11:58:22;;;;;;;6.80;2.67;;;15.00;99.90;;;;;;5079467;28;20519;-67
2022/11/04 12:00:53;;;;;;;7.00;2.43;;;15.30;99.90;;;;;;5091515;28;20537;-66
2022/11/04 12:03:29;;;;;;;2.10;2.00;;;15.50;99.90;;;;;;5091167;28;20494;-66
2022/11/04 12:06:13;;;;;;;3.80;2.10;;;15.50;99.90;;;;;;5094861;28;20430;-65
2022/11/04 12:09:12;;;;;;;5.03;1.90;;;15.50;99.90;;;;;;5091530;28;20443;-65
2022/11/04 12:11:51;;;;;;;4.73;2.30;;;15.30;99.90;;;;;;5083262;28;20456;-65
2022/11/04 12:14:28;;;;;;;4.47;1.93;;;15.10;99.90;;;;;;5091468;28;20926;-66
2022/11/04 12:17:04;;;;;;;3.23;2.30;;;14.80;99.90;;;;;;5091651;28;20827;-66
2022/11/04 12:19:46;;;;;;;2.27;2.17;;;14.60;99.90;;;;;;5091627;28;20858;-66
2022/11/04 12:22:25;;;;;;;8.67;2.20;;;14.50;99.90;;;;;;5092116;28;20493;-66
2022/11/04 12:25:01;;;;;;;3.20;2.00;;;14.10;99.90;;;;;;5090943;28;20451;-66
2022/11/04 12:27:36;;;;;;;3.93;2.17;;;13.90;99.90;;;;;;5071398;28;20494;-66
2022/11/04 12:30:09;;;;;;;7.63;2.70;;;13.80;99.90;;;;;;5071155;28;20454;-66
2022/11/04 12:33:09;;;;;;;3.33;2.80;;;13.60;99.90;;;;;;5100956;28;20479;-66
2022/11/04 12:35:56;;;;;;;3.87;2.60;;;13.50;99.90;;;;;;5110545;28;20439;-65
2022/11/04 12:38:47;;;;;;;3.97;2.50;;;13.40;99.90;;;;;;5091134;28;20483;-65
2022/11/04 12:41:23;;;;;;;3.43;2.17;;;13.40;99.90;;;;;;5090994;28;20447;-65
2022/11/04 12:44:00;;;;;;;6.27;2.67;;;13.20;99.90;;;;;;5090843;28;21086;-65
2022/11/04 12:46:36;;;;;;;5.07;2.20;;;13.10;99.90;;;;;;5091720;28;20447;-65
2022/11/04 12:49:28;;;;;;;3.63;2.10;;;13.10;99.90;;;;;;5090926;28;20940;-65
2022/11/04 12:52:01;;;;;;;4.20;2.20;;;13.10;99.90;;;;;;5101812;28;21063;-66
2022/11/04 12:54:44;;;;;;;4.80;2.00;;;13.10;99.90;;;;;;5111373;28;20537;-67
2022/11/04 12:57:18;;;;;;;6.20;2.53;;;13.20;99.90;;;;;;5110910;28;20450;-66
2022/11/04 13:00:01;;;;;;;3.43;2.03;;;13.20;99.90;;;;;;5111073;28;20477;-66
2022/11/04 13:02:31;;;;;;;4.77;2.60;;;13.30;99.90;;;;;;5111631;28;20502;-67
2022/11/04 13:05:05;;;;;;;13.00;2.60;;;13.50;99.90;;;;;;5110367;28;20451;-66
2022/11/04 13:07:38;;;;;;;6.60;2.90;;;13.50;99.90;;;;;;5073906;28;20497;-66
2022/11/04 13:10:16;;;;;;;8.37;3.10;;;13.50;99.90;;;;;;5112953;28;20450;-66
2022/11/04 13:12:45;;;;;;;9.13;2.30;;;13.50;99.90;;;;;;5073266;28;20870;-66
2022/11/04 13:15:16;;;;;;;12.73;4.50;;;13.50;99.90;;;;;;5086382;28;20451;-66
2022/11/04 13:17:45;;;;;;;8.10;3.10;;;13.50;99.90;;;;;;5114360;28;20870;-66
2022/11/04 13:20:22;;;;;;;17.83;7.30;;;13.40;99.90;;;;;;5108623;28;20814;-67
2022/11/04 13:22:51;;;;;;;8.10;2.90;;;13.30;99.90;;;;;;5093133;28;20474;-67
2022/11/04 13:25:24;;;;;;;6.63;2.20;;;13.30;99.90;;;;;;5094958;28;20455;-66
2022/11/04 13:27:51;;;;;;;9.73;2.70;;;13.30;99.90;;;;;;5106755;28;20853;-66
2022/11/04 13:30:21;;;;;;;5.10;3.17;;;13.20;99.90;;;;;;5093605;28;20447;-65
2022/11/04 13:32:54;;;;;;;9.67;3.70;;;13.10;99.90;;;;;;5093287;28;20532;-68
2022/11/04 13:35:28;;;;;;;3.70;2.93;;;13.10;99.90;;;;;;5099202;28;20455;-66
2022/11/04 13:38:00;;;;;;;5.47;2.63;;;12.90;99.90;;;;;;5113450;28;20446;-66
2022/11/04 13:40:34;;;;;;;4.70;2.73;;;12.80;99.90;;;;;;5102468;28;20467;-66
2022/11/04 13:46:00;;;;;;;6.33;3.47;;;12.60;99.90;;;;;;5093792;28;20570;-65
2022/11/04 13:48:29;;;;;;;11.07;3.47;;;12.50;99.90;;;;;;5092986;28;20851;-66
2022/11/04 13:51:00;;;;;;;5.20;3.23;;;12.50;99.90;;;;;;5093087;28;20512;-66